createdAt,value
2019-02-28T00:01:20.895Z,74.50
2019-02-28T00:03:50.864Z,74.20
2019-02-28T00:06:22.876Z,73.80
2019-02-28T00:09:03.226Z,73.20
2019-02-28T00:11:39.556Z,73.40
2019-02-28T00:14:10.481Z,73.70
2019-02-28T00:16:40.712Z,73.90
2019-02-28T00:19:11.132Z,74.30
2019-02-28T00:21:41.808Z,74.60
2019-02-28T00:24:12.656Z,73.70
2019-02-28T00:26:47.610Z,73.00
2019-02-28T00:29:15.883Z,72.00
2019-02-28T00:31:49.488Z,71.80
2019-02-28T00:34:17.878Z,70.70
2019-02-28T00:36:50.345Z,71.20
2019-02-28T00:39:19.878Z,72.70
2019-02-28T00:41:50.021Z,74.50
2019-02-28T00:44:20.256Z,75.90
2019-02-28T00:46:50.417Z,76.10
2019-02-28T00:49:20.629Z,77.30
2019-02-28T00:51:50.800Z,77.20
2019-02-28T00:54:21.032Z,77.60
2019-02-28T00:56:52.511Z,77.30
2019-02-28T00:59:22.928Z,77.60
2019-02-28T01:01:53.098Z,79.10
2019-02-28T01:04:23.321Z,80.50
2019-02-28T01:06:53.491Z,79.80
2019-02-28T01:09:23.697Z,81.10
2019-02-28T01:11:53.849Z,82.10
2019-02-28T01:14:24.085Z,80.60
2019-02-28T01:16:54.230Z,81.60
2019-02-28T01:19:24.461Z,81.40
2019-02-28T01:21:56.321Z,82.10
2019-02-28T01:24:26.725Z,82.80
2019-02-28T01:26:56.875Z,82.50
2019-02-28T01:29:27.087Z,83.70
2019-02-28T01:31:57.226Z,83.30
2019-02-28T01:34:29.035Z,83.80
2019-02-28T01:36:59.296Z,84.30
2019-02-28T01:39:30.740Z,84.10
2019-02-28T01:42:01.373Z,83.70
2019-02-28T01:44:35.548Z,84.80
2019-02-28T01:47:03.367Z,84.70
2019-02-28T01:49:33.589Z,83.30
2019-02-28T01:52:03.734Z,83.30
2019-02-28T01:54:33.948Z,83.60
2019-02-28T01:57:04.111Z,84.80
2019-02-28T01:59:35.417Z,84.10
2019-02-28T02:02:06.691Z,84.20
2019-02-28T02:04:37.300Z,84.80
2019-02-28T02:07:07.451Z,85.70
2019-02-28T02:09:37.661Z,85.40
2019-02-28T02:12:07.830Z,84.60
2019-02-28T02:14:38.066Z,85.10
2019-02-28T02:17:08.202Z,84.70
2019-02-28T02:19:38.445Z,83.90
2019-02-28T02:22:09.374Z,83.70
2019-02-28T02:24:40.634Z,84.10
2019-02-28T02:27:10.778Z,83.70
2019-02-28T02:29:40.982Z,82.60
2019-02-28T02:32:11.139Z,82.30
2019-02-28T02:34:41.380Z,81.00
2019-02-28T02:37:11.603Z,80.20
2019-02-28T02:39:43.013Z,80.40
2019-02-28T02:42:13.368Z,81.20
2019-02-28T02:44:43.553Z,81.30
2019-02-28T02:47:13.815Z,81.60
2019-02-28T02:49:44.131Z,82.50
2019-02-28T02:52:14.339Z,82.70
2019-02-28T02:54:44.578Z,82.80
2019-02-28T02:57:15.740Z,83.10
2019-02-28T02:59:46.195Z,83.90
2019-02-28T03:02:16.428Z,83.40
2019-02-28T03:04:46.617Z,83.40
2019-02-28T03:07:23.349Z,83.40
2019-02-28T03:09:48.633Z,83.20
2019-02-28T03:12:18.782Z,83.30
2019-02-28T03:14:49.932Z,83.00
2019-02-28T03:17:20.588Z,83.10
2019-02-28T03:19:50.754Z,83.40
2019-02-28T03:22:28.333Z,83.30
2019-02-28T03:24:52.748Z,83.70
2019-02-28T03:27:22.974Z,84.70
2019-02-28T03:29:53.154Z,84.90
2019-02-28T03:32:23.388Z,84.20
2019-02-28T03:34:58.076Z,83.30
2019-02-28T03:37:25.392Z,84.10
2019-02-28T03:40:02.714Z,85.10
2019-02-28T03:42:28.958Z,85.40
2019-02-28T03:44:59.309Z,84.90
2019-02-28T03:47:29.507Z,85.10
2019-02-28T03:49:59.731Z,85.60
2019-02-28T03:52:29.882Z,87.30
2019-02-28T03:55:03.406Z,87.50
2019-02-28T03:57:33.670Z,86.80
2019-02-28T04:00:05.877Z,86.30
2019-02-28T04:02:36.238Z,86.80
2019-02-28T04:05:08.076Z,87.30
2019-02-28T04:07:38.274Z,87.60
2019-02-28T04:10:10.891Z,87.10
2019-02-28T04:12:45.688Z,86.80
2019-02-28T04:15:16.045Z,87.40
2019-02-28T04:17:46.265Z,88.10
2019-02-28T04:20:16.483Z,90.90
2019-02-28T04:22:46.825Z,90.90
2019-02-28T04:25:22.763Z,90.70
2019-02-28T04:27:48.889Z,89.30
2019-02-28T04:30:19.126Z,89.40
2019-02-28T04:32:49.349Z,88.60
2019-02-28T04:35:23.941Z,89.20
2019-02-28T04:37:51.414Z,91.10
2019-02-28T04:40:24.033Z,91.10
2019-02-28T04:42:52.923Z,91.00
2019-02-28T04:45:23.358Z,89.80
2019-02-28T04:47:54.830Z,88.50
2019-02-28T04:50:25.037Z,88.50
2019-02-28T04:52:55.253Z,89.00
2019-02-28T04:55:25.494Z,89.40
2019-02-28T04:57:55.712Z,89.60
2019-02-28T05:00:25.934Z,89.90
2019-02-28T05:02:56.196Z,90.40
2019-02-28T05:05:26.442Z,90.10
2019-02-28T05:07:56.678Z,90.50
2019-02-28T05:10:26.913Z,90.60
2019-02-28T05:12:57.125Z,91.50
2019-02-28T05:15:27.361Z,90.30
2019-02-28T05:17:57.579Z,90.00
2019-02-28T05:20:27.812Z,91.60
2019-02-28T05:22:59.236Z,92.20
2019-02-28T05:25:29.885Z,91.90
2019-02-28T05:28:00.125Z,92.00
2019-02-28T05:30:30.341Z,90.60
2019-02-28T05:33:00.555Z,88.00
2019-02-28T05:35:30.776Z,90.40
2019-02-28T05:38:02.174Z,90.90
2019-02-28T05:40:32.397Z,90.60
2019-02-28T05:43:02.631Z,89.40
2019-02-28T05:45:32.863Z,90.50
2019-02-28T05:48:03.938Z,88.40
2019-02-28T05:50:34.374Z,91.10
2019-02-28T05:53:06.277Z,92.20
2019-02-28T05:55:36.226Z,92.50
2019-02-28T05:58:06.472Z,91.80
2019-02-28T06:00:37.073Z,91.00
2019-02-28T06:03:08.050Z,90.00
2019-02-28T06:05:38.937Z,87.50
2019-02-28T06:08:09.422Z,88.50
2019-02-28T06:10:39.587Z,90.30
2019-02-28T06:13:09.802Z,90.00
2019-02-28T06:15:39.976Z,90.30
2019-02-28T06:18:10.206Z,90.90
2019-02-28T06:20:40.365Z,90.90
2019-02-28T06:23:10.593Z,90.80
2019-02-28T06:25:40.773Z,92.00
2019-02-28T06:28:12.032Z,92.80
2019-02-28T06:30:42.771Z,92.90
2019-02-28T06:33:13.175Z,92.60
2019-02-28T06:35:43.349Z,92.00
2019-02-28T06:38:16.225Z,91.40
2019-02-28T06:40:46.982Z,90.40
2019-02-28T06:43:18.919Z,90.60
2019-02-28T06:45:49.036Z,91.20
2019-02-28T06:48:20.842Z,91.20
2019-02-28T06:50:51.116Z,91.00
2019-02-28T06:53:21.341Z,90.30
2019-02-28T06:55:51.567Z,90.20
2019-02-28T06:58:21.801Z,90.00
2019-02-28T07:00:52.037Z,89.90
2019-02-28T07:03:22.254Z,90.60
2019-02-28T07:05:52.474Z,90.70
2019-02-28T07:08:24.760Z,90.60
2019-02-28T07:10:54.540Z,90.20
2019-02-28T07:13:24.774Z,90.40
2019-02-28T07:15:55.546Z,90.30
2019-02-28T07:18:26.828Z,90.00
2019-02-28T07:20:57.054Z,89.80
2019-02-28T07:23:29.945Z,89.10
2019-02-28T07:25:59.122Z,87.00
2019-02-28T07:28:36.041Z,85.50
2019-02-28T07:31:02.320Z,86.00
2019-02-28T07:33:32.537Z,86.60
2019-02-28T07:36:05.596Z,85.40
2019-02-28T07:38:34.603Z,85.40
2019-02-28T07:41:04.822Z,84.70
2019-02-28T07:43:35.052Z,83.50
2019-02-28T07:46:07.720Z,82.90
2019-02-28T07:48:38.333Z,83.20
2019-02-28T07:51:09.711Z,82.60
2019-02-28T07:53:40.968Z,82.40
2019-02-28T07:56:11.717Z,81.70
2019-02-28T07:58:41.931Z,81.20
2019-02-28T08:01:12.124Z,80.20
2019-02-28T08:03:43.370Z,79.30
2019-02-28T08:06:14.169Z,79.30
2019-02-28T08:08:44.393Z,78.60
2019-02-28T08:11:14.565Z,78.20
2019-02-28T08:13:44.779Z,77.90
2019-02-28T08:16:14.945Z,77.20
2019-02-28T08:18:45.158Z,77.20
2019-02-28T08:21:15.322Z,77.30
2019-02-28T08:23:45.532Z,77.10
2019-02-28T08:26:18.789Z,76.80
2019-02-28T08:28:47.544Z,76.30
2019-02-28T08:31:17.699Z,76.30
2019-02-28T08:33:49.108Z,76.10
2019-02-28T08:36:19.531Z,76.20
2019-02-28T08:38:49.752Z,74.50
2019-02-28T08:41:22.579Z,74.80
2019-02-28T08:43:51.776Z,74.50
2019-02-28T08:46:22.911Z,74.10
2019-02-28T08:48:53.151Z,73.40
2019-02-28T08:51:23.333Z,73.50
2019-02-28T08:53:53.581Z,73.20
2019-02-28T08:56:23.806Z,73.20
2019-02-28T08:58:54.026Z,73.50
2019-02-28T09:01:24.250Z,72.80
2019-02-28T09:03:54.465Z,71.50
2019-02-28T09:06:24.709Z,71.10
2019-02-28T09:08:56.613Z,71.80
2019-02-28T09:11:26.965Z,71.20
2019-02-28T09:13:57.198Z,71.10
2019-02-28T09:16:27.372Z,71.10
2019-02-28T09:19:00.951Z,71.00
2019-02-28T09:21:29.421Z,70.70
2019-02-28T09:23:59.678Z,70.30
2019-02-28T09:26:31.297Z,70.40
2019-02-28T09:29:02.901Z,70.60
2019-02-28T09:31:38.660Z,70.90
2019-02-28T09:34:06.115Z,69.90
2019-02-28T09:36:36.296Z,69.80
2019-02-28T09:39:06.776Z,69.90
2019-02-28T09:41:40.169Z,69.20
2019-02-28T09:44:09.064Z,67.30
2019-02-28T09:46:39.270Z,66.50
2019-02-28T09:49:12.976Z,66.20
2019-02-28T09:51:42.533Z,66.00
2019-02-28T09:54:13.018Z,64.20
2019-02-28T09:56:44.559Z,63.90
2019-02-28T09:59:15.037Z,65.00
2019-02-28T10:01:45.216Z,64.50
2019-02-28T10:04:16.464Z,65.60
2019-02-28T10:06:48.547Z,65.40
2019-02-28T10:09:18.501Z,67.60
2019-02-28T10:11:48.662Z,67.50
2019-02-28T10:14:18.913Z,65.10
2019-02-28T10:16:49.534Z,64.60
2019-02-28T10:19:20.930Z,65.70
2019-02-28T10:21:52.163Z,66.60
2019-02-28T10:24:24.537Z,66.40
2019-02-28T10:26:54.425Z,65.50
2019-02-28T10:29:24.642Z,66.50
2019-02-28T10:31:54.876Z,65.80
2019-02-28T10:34:26.418Z,64.70
2019-02-28T10:36:56.958Z,64.50
2019-02-28T10:39:27.194Z,63.20
2019-02-28T10:41:57.426Z,60.50
2019-02-28T10:44:30.831Z,58.30
2019-02-28T10:46:59.445Z,57.50
2019-02-28T10:49:29.707Z,58.20
2019-02-28T10:51:59.866Z,58.30
2019-02-28T10:54:30.102Z,57.50
2019-02-28T10:57:02.998Z,58.90
2019-02-28T10:59:32.141Z,60.10
2019-02-28T11:02:02.332Z,60.00
2019-02-28T11:04:32.674Z,59.00
2019-02-28T11:07:03.132Z,59.30
2019-02-28T11:09:33.487Z,58.10
2019-02-28T11:12:03.671Z,58.20
2019-02-28T11:14:35.531Z,58.20
2019-02-28T11:17:12.274Z,57.40
2019-02-28T11:19:37.403Z,57.90
2019-02-28T11:22:07.379Z,56.80
2019-02-28T11:24:37.606Z,56.50
2019-02-28T11:27:07.777Z,58.20
2019-02-28T11:29:38.011Z,57.40
2019-02-28T11:32:08.183Z,56.20
2019-02-28T11:34:38.426Z,56.60
2019-02-28T11:37:08.964Z,56.20
2019-02-28T11:39:40.237Z,56.00
2019-02-28T11:42:10.453Z,55.50
2019-02-28T11:44:43.547Z,56.00
2019-02-28T11:47:12.538Z,55.80
2019-02-28T11:49:42.768Z,56.00
2019-02-28T11:52:12.997Z,54.00
2019-02-28T11:54:45.177Z,54.90
2019-02-28T11:57:15.043Z,55.20
2019-02-28T11:59:45.251Z,54.70
2019-02-28T12:02:15.413Z,53.90
2019-02-28T12:04:45.649Z,53.60
2019-02-28T12:07:15.813Z,53.70
2019-02-28T12:09:47.504Z,53.90
2019-02-28T12:12:17.657Z,52.60
2019-02-28T12:14:47.885Z,53.60
2019-02-28T12:17:18.044Z,53.00
2019-02-28T12:19:50.691Z,52.80
2019-02-28T12:22:20.077Z,52.10
2019-02-28T12:24:50.304Z,52.00
2019-02-28T12:27:20.476Z,52.70
2019-02-28T12:29:50.703Z,51.50
2019-02-28T12:32:20.972Z,51.10
2019-02-28T12:34:51.198Z,50.90
2019-02-28T12:37:22.037Z,51.20
2019-02-28T12:39:53.300Z,51.30
2019-02-28T12:42:23.479Z,50.10
2019-02-28T12:44:53.717Z,49.90
2019-02-28T12:47:23.978Z,49.70
2019-02-28T12:49:54.287Z,50.30
2019-02-28T12:52:26.001Z,49.50
2019-02-28T12:54:56.856Z,48.80
2019-02-28T12:57:27.199Z,49.40
2019-02-28T12:59:57.415Z,49.10
2019-02-28T13:02:27.593Z,48.70
2019-02-28T13:04:57.876Z,48.50
2019-02-28T13:07:30.456Z,49.50
2019-02-28T13:09:59.952Z,48.90
2019-02-28T13:12:30.112Z,48.70
2019-02-28T13:15:00.480Z,48.60
2019-02-28T13:17:31.653Z,47.80
2019-02-28T13:20:02.980Z,49.00
2019-02-28T13:22:33.138Z,48.60
2019-02-28T13:25:03.393Z,48.10
2019-02-28T13:27:33.546Z,48.10
2019-02-28T13:30:10.680Z,48.40
2019-02-28T13:32:39.208Z,48.10
2019-02-28T13:35:13.146Z,48.00
2019-02-28T13:37:44.804Z,48.50
2019-02-28T13:40:16.374Z,48.70
2019-02-28T13:42:46.545Z,47.80
2019-02-28T13:45:23.304Z,47.20
2019-02-28T13:47:50.161Z,48.10
2019-02-28T13:50:28.785Z,47.20
2019-02-28T13:53:03.000Z,47.00
2019-02-28T13:55:31.857Z,48.00
2019-02-28T13:58:02.129Z,47.00
2019-02-28T14:00:35.483Z,46.50
2019-02-28T14:03:10.799Z,46.90
2019-02-28T14:05:41.681Z,45.70
2019-02-28T14:08:12.464Z,46.60
2019-02-28T14:10:43.350Z,45.40
2019-02-28T14:13:13.510Z,46.50
2019-02-28T14:15:52.558Z,46.50
2019-02-28T14:18:20.433Z,46.10
2019-02-28T14:20:51.880Z,45.90
2019-02-28T14:23:22.344Z,45.90
2019-02-28T14:25:52.562Z,45.80
2019-02-28T14:28:24.041Z,46.60
2019-02-28T14:30:54.449Z,46.20
2019-02-28T14:33:26.077Z,46.00
2019-02-28T14:35:56.320Z,45.60
2019-02-28T14:38:29.473Z,45.30
2019-02-28T14:40:59.391Z,46.80
2019-02-28T14:43:29.897Z,46.80
2019-02-28T14:46:00.121Z,47.00
2019-02-28T14:48:30.353Z,47.70
2019-02-28T14:51:00.509Z,46.70
2019-02-28T14:53:30.746Z,47.90
2019-02-28T14:56:00.919Z,47.80
2019-02-28T14:58:31.076Z,48.40
2019-02-28T15:01:02.522Z,48.00
2019-02-28T15:03:35.948Z,47.90
2019-02-28T15:06:04.618Z,48.00
2019-02-28T15:08:34.778Z,48.00
2019-02-28T15:11:06.451Z,47.80
2019-02-28T15:13:39.058Z,47.60
2019-02-28T15:16:09.301Z,48.30
2019-02-28T15:18:39.549Z,48.10
2019-02-28T15:21:09.703Z,48.30
2019-02-28T15:23:39.924Z,48.10
2019-02-28T15:26:10.102Z,48.20
2019-02-28T15:28:40.342Z,48.80
2019-02-28T15:31:10.506Z,49.00
2019-02-28T15:33:40.752Z,49.30
2019-02-28T15:36:10.930Z,49.40
2019-02-28T15:38:41.879Z,50.00
2019-02-28T15:41:12.943Z,50.20
2019-02-28T15:43:43.189Z,49.50
2019-02-28T15:46:13.413Z,49.40
2019-02-28T15:48:43.648Z,49.30
2019-02-28T15:51:13.850Z,48.90
2019-02-28T15:53:46.844Z,46.50
2019-02-28T15:56:19.560Z,46.70
2019-02-28T15:58:47.781Z,46.40
2019-02-28T16:01:17.950Z,46.80
2019-02-28T16:03:48.366Z,46.70
2019-02-28T16:06:20.595Z,47.40
2019-02-28T16:08:51.042Z,47.20
2019-02-28T16:11:21.234Z,47.70
2019-02-28T16:13:51.455Z,47.80
2019-02-28T16:16:24.662Z,48.00
2019-02-28T16:18:54.494Z,50.00
2019-02-28T16:21:24.650Z,49.00
2019-02-28T16:23:54.896Z,48.10
2019-02-28T16:26:25.067Z,48.00
2019-02-28T16:28:55.297Z,47.80
2019-02-28T16:31:25.477Z,47.70
2019-02-28T16:33:56.569Z,47.70
2019-02-28T16:36:29.192Z,48.20
2019-02-28T16:38:59.533Z,48.70
2019-02-28T16:41:29.709Z,49.60
2019-02-28T16:43:59.955Z,51.30
2019-02-28T16:46:30.279Z,51.00
2019-02-28T16:49:00.514Z,53.40
2019-02-28T16:51:30.765Z,54.60
2019-02-28T16:54:00.978Z,53.90
2019-02-28T16:56:31.373Z,56.00
2019-02-28T16:59:01.613Z,56.20
2019-02-28T17:01:31.982Z,55.00
2019-02-28T17:04:03.375Z,56.00
2019-02-28T17:06:35.647Z,54.20
2019-02-28T17:09:20.362Z,55.50
2019-02-28T17:11:58.146Z,56.00
2019-02-28T17:14:28.342Z,57.60
2019-02-28T17:17:08.713Z,59.70
2019-02-28T17:19:37.659Z,61.80
2019-02-28T17:22:07.887Z,63.00
2019-02-28T17:24:38.070Z,62.30
2019-02-28T17:27:15.866Z,62.00
2019-02-28T17:29:50.406Z,61.10
2019-02-28T17:32:21.342Z,61.90
2019-02-28T17:34:51.512Z,61.50
2019-02-28T17:37:25.989Z,59.60
2019-02-28T17:39:53.548Z,59.30
2019-02-28T17:42:23.876Z,58.10
2019-02-28T17:45:00.223Z,57.20
2019-02-28T17:47:44.691Z,57.10
2019-02-28T17:50:23.864Z,56.80
2019-02-28T17:53:10.239Z,56.40
2019-02-28T17:56:03.918Z,55.40
2019-02-28T17:59:04.485Z,55.20
2019-02-28T18:01:54.577Z,55.00
2019-02-28T18:05:03.838Z,55.10
2019-02-28T18:07:52.905Z,55.20
2019-02-28T18:10:38.535Z,54.70
2019-02-28T18:13:16.280Z,54.90
2019-02-28T18:15:50.013Z,55.20
2019-02-28T18:18:29.371Z,55.40
2019-02-28T18:21:11.808Z,55.70
2019-02-28T18:23:45.968Z,55.80
2019-02-28T18:26:51.362Z,56.10
2019-02-28T18:29:56.435Z,56.20
2019-02-28T18:32:29.851Z,56.50
2019-02-28T18:34:58.230Z,57.40
2019-02-28T18:37:28.371Z,57.10
2019-02-28T18:39:58.543Z,57.40
2019-02-28T18:42:29.204Z,57.70
2019-02-28T18:44:59.587Z,57.90
2019-02-28T18:47:31.626Z,57.90
2019-02-28T18:50:02.374Z,58.00
2019-02-28T18:52:33.165Z,58.00
2019-02-28T18:55:06.348Z,58.20
2019-02-28T18:57:35.285Z,58.20
2019-02-28T19:00:15.955Z,58.10
2019-02-28T19:02:46.745Z,58.20
2019-02-28T19:05:17.341Z,58.50
2019-02-28T19:07:47.874Z,58.50
2019-02-28T19:10:18.834Z,58.50
2019-02-28T19:12:49.780Z,58.50
2019-02-28T19:15:20.266Z,58.90
2019-02-28T19:17:51.016Z,59.20
2019-02-28T19:20:21.636Z,59.10
2019-02-28T19:22:52.302Z,59.10
2019-02-28T19:25:22.894Z,59.40
2019-02-28T19:27:53.271Z,59.40
2019-02-28T19:30:23.674Z,59.80
2019-02-28T19:32:54.324Z,59.80
2019-02-28T19:35:24.720Z,59.80
2019-02-28T19:37:55.057Z,60.30
2019-02-28T19:40:25.337Z,60.30
2019-02-28T19:42:55.722Z,60.40
2019-02-28T19:45:29.413Z,62.80
2019-02-28T19:47:59.646Z,61.90
2019-02-28T19:50:29.874Z,62.00
2019-02-28T19:53:00.497Z,62.00
2019-02-28T19:55:30.888Z,61.80
2019-02-28T19:58:01.252Z,62.20
2019-02-28T20:00:31.542Z,62.60
2019-02-28T20:03:01.793Z,64.10
2019-02-28T20:05:31.978Z,64.80
2019-02-28T20:08:02.341Z,64.60
2019-02-28T20:10:40.213Z,63.80
2019-02-28T20:13:12.423Z,63.00
2019-02-28T20:15:42.587Z,63.00
2019-02-28T20:18:12.956Z,64.00
2019-02-28T20:20:43.302Z,65.30
2019-02-28T20:23:13.770Z,63.90
2019-02-28T20:25:44.261Z,63.20
2019-02-28T20:28:14.710Z,62.50
2019-02-28T20:30:44.999Z,62.30
2019-02-28T20:33:15.381Z,61.80
2019-02-28T20:35:45.679Z,61.90
2019-02-28T20:38:17.032Z,61.90
2019-02-28T20:40:47.222Z,62.20
2019-02-28T20:43:17.499Z,62.80
2019-02-28T20:45:48.886Z,62.90
2019-02-28T20:48:20.167Z,64.80
2019-02-28T20:50:54.845Z,65.90
2019-02-28T20:53:25.217Z,68.50
2019-02-28T20:55:55.398Z,68.40
2019-02-28T20:58:25.765Z,67.30
2019-02-28T21:00:55.959Z,66.90
2019-02-28T21:03:26.237Z,68.40
2019-02-28T21:05:56.452Z,69.50
2019-02-28T21:08:26.805Z,68.90
2019-02-28T21:10:57.010Z,67.40
2019-02-28T21:13:27.264Z,66.40
2019-02-28T21:15:57.445Z,66.80
2019-02-28T21:18:27.713Z,67.70
2019-02-28T21:20:59.126Z,68.40
2019-02-28T21:23:29.514Z,68.60
2019-02-28T21:26:01.113Z,68.90
2019-02-28T21:28:31.489Z,68.50
2019-02-28T21:31:01.802Z,68.20
2019-02-28T21:33:32.179Z,68.60
2019-02-28T21:36:02.633Z,69.60
2019-02-28T21:38:33.013Z,69.60
2019-02-28T21:41:03.502Z,69.70
2019-02-28T21:43:34.238Z,68.90
2019-02-28T21:46:04.476Z,70.10
2019-02-28T21:48:34.823Z,71.70
2019-02-28T21:51:05.123Z,73.70
2019-02-28T21:53:35.542Z,74.00
2019-02-28T21:56:05.796Z,75.00
2019-02-28T21:58:36.021Z,75.40
2019-02-28T22:01:06.288Z,75.90
2019-02-28T22:03:36.530Z,76.80
2019-02-28T22:06:06.801Z,77.10
2019-02-28T22:08:37.043Z,77.30
2019-02-28T22:11:07.381Z,77.00
2019-02-28T22:13:37.619Z,78.00
2019-02-28T22:16:07.904Z,77.50
2019-02-28T22:18:38.170Z,76.40
2019-02-28T22:21:08.432Z,76.00
2019-02-28T22:23:38.676Z,76.60
2019-02-28T22:26:08.930Z,77.40
2019-02-28T22:28:39.187Z,79.20
2019-02-28T22:31:20.157Z,79.50
2019-02-28T22:33:52.021Z,79.60
2019-02-28T22:36:23.797Z,79.30
2019-02-28T22:38:54.043Z,79.70
2019-02-28T22:41:25.599Z,79.90
2019-02-28T22:43:55.847Z,80.60
2019-02-28T22:46:26.097Z,81.70
2019-02-28T22:48:56.395Z,81.40
2019-02-28T22:51:26.643Z,81.40
2019-02-28T22:53:56.872Z,81.20
2019-02-28T22:56:27.121Z,82.50
2019-02-28T22:58:57.356Z,83.70
2019-02-28T23:01:28.285Z,82.70
2019-02-28T23:03:58.536Z,81.40
2019-02-28T23:06:28.794Z,82.20
2019-02-28T23:08:59.023Z,82.10
2019-02-28T23:11:29.350Z,83.80
2019-02-28T23:13:59.606Z,83.40
2019-02-28T23:16:29.839Z,83.30
2019-02-28T23:19:00.088Z,81.80
2019-02-28T23:21:30.360Z,80.70
2019-02-28T23:24:00.650Z,79.80
2019-02-28T23:26:30.953Z,80.70
2019-02-28T23:29:04.415Z,80.70
2019-02-28T23:31:47.779Z,79.80
2019-02-28T23:34:21.232Z,78.80
2019-02-28T23:36:51.471Z,78.20
2019-02-28T23:39:21.717Z,78.30
2019-02-28T23:41:51.908Z,78.60
2019-02-28T23:44:22.154Z,78.80
2019-02-28T23:46:52.344Z,78.90
2019-02-28T23:49:22.591Z,78.40
2019-02-28T23:51:53.776Z,77.90
2019-02-28T23:54:24.223Z,77.10
2019-02-28T23:56:54.398Z,76.50
2019-02-28T23:59:24.722Z,75.80
